Time;durP1;ratioP1;P1;durP2;ratioP2;P2;SDS_P1;SDS_P2;PMS_P1;PMS_P2;Temp;Humidity;BMP_temperature;BMP_pressure;BME280_temperature;BME280_humidity;BME280_pressure;Samples;Min_cycle;Max_cycle;Signal;HPM_P1;HPM_P2
2023/03/03 00:01:03;;;;;;;1.60;1.00;;;5.90;99.90;;;;;;4970077;28;20315;-61
2023/03/03 00:03:32;;;;;;;2.90;1.23;;;6.10;99.90;;;;;;4968650;28;20712;-61
2023/03/03 00:06:00;;;;;;;1.63;1.50;;;6.10;99.90;;;;;;4971711;28;20295;-62
2023/03/03 00:08:28;;;;;;;2.92;1.70;;;6.00;99.90;;;;;;4974568;28;20210;-62
2023/03/03 00:10:55;;;;;;;1.30;1.02;;;6.00;99.90;;;;;;4975288;28;20264;-62
2023/03/03 00:13:26;;;;;;;1.80;1.50;;;5.90;99.90;;;;;;4975073;28;20727;-62
2023/03/03 00:16:12;;;;;;;1.85;1.20;;;5.80;99.90;;;;;;4974188;28;20378;-62
2023/03/03 00:18:43;;;;;;;3.08;1.48;;;5.80;99.90;;;;;;4963976;28;20295;-62
2023/03/03 00:21:28;;;;;;;1.73;1.63;;;5.70;99.90;;;;;;4974830;28;20209;-62
2023/03/03 00:24:10;;;;;;;2.03;1.92;;;5.60;99.90;;;;;;4974050;28;20312;-62
2023/03/03 00:26:40;;;;;;;1.48;1.23;;;5.50;99.90;;;;;;4968051;28;20237;-62
2023/03/03 00:29:29;;;;;;;2.05;1.65;;;5.30;99.90;;;;;;4974761;28;20222;-62
2023/03/03 00:32:15;;;;;;;1.45;1.35;;;5.20;99.90;;;;;;4973940;28;20213;-62
2023/03/03 00:34:44;;;;;;;2.05;1.10;;;5.20;99.90;;;;;;4968541;28;20212;-62
2023/03/03 00:37:27;;;;;;;2.17;1.77;;;5.40;99.90;;;;;;4974555;28;20294;-62
2023/03/03 00:40:02;;;;;;;1.58;1.27;;;5.60;99.90;;;;;;4974592;28;20220;-61
2023/03/03 00:42:35;;;;;;;1.08;0.95;;;5.80;99.90;;;;;;4974399;28;20705;-61
2023/03/03 00:45:22;;;;;;;4.00;1.30;;;5.80;99.90;;;;;;4982940;28;20296;-61
2023/03/03 00:47:51;;;;;;;2.95;1.77;;;5.90;99.90;;;;;;4968943;28;20293;-61
2023/03/03 00:50:31;;;;;;;1.65;1.52;;;6.00;99.90;;;;;;4975679;28;20763;-62
2023/03/03 00:53:05;;;;;;;2.40;1.15;;;6.00;99.90;;;;;;4986058;28;20319;-61
2023/03/03 00:55:34;;;;;;;0.95;0.90;;;6.10;99.90;;;;;;4982824;28;20296;-61
2023/03/03 00:58:02;;;;;;;1.85;1.38;;;6.10;99.90;;;;;;4982536;28;20622;-63
2023/03/03 01:00:30;;;;;;;2.45;1.88;;;6.20;99.90;;;;;;4984829;28;20318;-61
2023/03/03 01:03:04;;;;;;;1.83;1.40;;;6.20;99.90;;;;;;4985807;28;20241;-61
2023/03/03 01:05:32;;;;;;;3.15;1.85;;;6.20;99.90;;;;;;4982777;28;20238;-62
2023/03/03 01:08:01;;;;;;;2.80;1.80;;;6.20;99.90;;;;;;4982533;28;20224;-62
2023/03/03 01:10:32;;;;;;;1.70;1.30;;;6.10;99.90;;;;;;4984683;28;20683;-62
2023/03/03 01:13:00;;;;;;;1.33;1.10;;;5.90;99.90;;;;;;4985847;28;20222;-62
2023/03/03 01:15:28;;;;;;;1.90;1.70;;;6.00;99.90;;;;;;4983178;28;20218;-62
2023/03/03 01:17:56;;;;;;;3.92;1.23;;;6.00;99.90;;;;;;4974223;28;20233;-62
2023/03/03 01:20:25;;;;;;;1.75;1.30;;;6.00;99.90;;;;;;4975350;28;20653;-62
2023/03/03 01:22:53;;;;;;;2.28;1.65;;;5.90;99.90;;;;;;4985535;28;20653;-62
2023/03/03 01:25:21;;;;;;;2.20;1.50;;;5.90;99.90;;;;;;4984075;28;20228;-62
2023/03/03 01:27:49;;;;;;;1.40;1.30;;;5.90;99.90;;;;;;4982068;28;20852;-62
2023/03/03 01:30:17;;;;;;;1.58;1.48;;;5.90;99.90;;;;;;4982390;28;20626;-62
2023/03/03 01:32:44;;;;;;;2.15;1.83;;;5.80;99.90;;;;;;4985059;28;20236;-63
2023/03/03 01:35:12;;;;;;;3.00;1.70;;;5.80;99.90;;;;;;4985048;28;20304;-62
2023/03/03 01:37:42;;;;;;;2.88;2.33;;;5.80;99.90;;;;;;4982051;28;20791;-62
2023/03/03 01:40:14;;;;;;;1.23;1.13;;;5.80;99.90;;;;;;4981496;28;20210;-62
2023/03/03 01:42:42;;;;;;;1.50;1.23;;;5.60;99.90;;;;;;4974518;28;20254;-62
2023/03/03 01:45:15;;;;;;;2.78;2.10;;;5.70;99.90;;;;;;4981837;28;20220;-62
2023/03/03 01:47:46;;;;;;;3.28;2.10;;;5.60;99.90;;;;;;4973736;28;20212;-62
2023/03/03 01:50:17;;;;;;;2.85;1.77;;;5.50;99.90;;;;;;4973438;28;20238;-63
2023/03/03 01:52:47;;;;;;;1.95;1.75;;;5.60;99.90;;;;;;4985040;28;20768;-62
2023/03/03 01:55:20;;;;;;;1.40;1.30;;;5.60;99.90;;;;;;4984512;28;20212;-62
2023/03/03 01:57:54;;;;;;;1.90;1.70;;;5.80;99.90;;;;;;4981653;28;20214;-62
2023/03/03 02:00:22;;;;;;;3.60;2.33;;;5.80;99.90;;;;;;4982172;28;20202;-63
2023/03/03 02:02:51;;;;;;;3.03;1.75;;;5.60;99.90;;;;;;4984720;28;20264;-62
2023/03/03 02:05:19;;;;;;;4.63;2.10;;;5.60;99.90;;;;;;4983643;28;20215;-62
2023/03/03 02:07:48;;;;;;;2.20;1.55;;;5.60;99.90;;;;;;4981460;28;20216;-62
2023/03/03 02:10:18;;;;;;;1.55;1.45;;;5.60;99.90;;;;;;4981262;28;20605;-62
2023/03/03 02:12:49;;;;;;;2.53;1.85;;;5.50;99.90;;;;;;4984687;28;20260;-63
2023/03/03 02:15:22;;;;;;;2.00;1.73;;;5.50;99.90;;;;;;4983985;28;20670;-62
2023/03/03 02:17:53;;;;;;;1.60;1.40;;;5.50;99.90;;;;;;4980976;28;20264;-62
2023/03/03 02:20:35;;;;;;;2.47;2.25;;;5.50;99.90;;;;;;4973442;28;20304;-62
2023/03/03 02:23:11;;;;;;;3.08;2.15;;;5.50;99.90;;;;;;4984447;28;20229;-62
2023/03/03 02:25:47;;;;;;;4.47;2.47;;;5.50;99.90;;;;;;4981061;28;20732;-62
2023/03/03 02:28:16;;;;;;;4.22;1.75;;;5.60;99.90;;;;;;4980820;28;20289;-63
2023/03/03 02:30:49;;;;;;;2.42;1.90;;;5.60;99.90;;;;;;4983610;28;20691;-63
2023/03/03 02:33:17;;;;;;;5.28;2.30;;;5.60;99.90;;;;;;4983513;28;20323;-62
2023/03/03 02:35:45;;;;;;;2.85;2.28;;;5.60;99.90;;;;;;4980876;28;20243;-62
2023/03/03 02:38:21;;;;;;;3.83;2.17;;;5.50;99.90;;;;;;4980766;28;20586;-62
2023/03/03 02:40:59;;;;;;;2.45;1.77;;;5.60;99.90;;;;;;4974192;28;20209;-62
2023/03/03 02:43:35;;;;;;;2.35;2.03;;;5.50;99.90;;;;;;4982126;28;20230;-62
2023/03/03 02:46:03;;;;;;;4.18;2.55;;;5.60;99.90;;;;;;4978778;28;20279;-62
2023/03/03 02:48:31;;;;;;;3.67;2.17;;;5.50;99.90;;;;;;4974541;28;20217;-62
2023/03/03 02:50:59;;;;;;;2.70;2.40;;;5.50;99.90;;;;;;4983607;28;20281;-62
2023/03/03 02:53:27;;;;;;;2.35;1.80;;;5.50;99.90;;;;;;4982222;28;20315;-61
2023/03/03 02:55:55;;;;;;;2.85;2.15;;;5.40;99.90;;;;;;4980878;28;20223;-62
2023/03/03 02:58:22;;;;;;;3.13;2.40;;;5.30;99.90;;;;;;4981343;28;20679;-62
2023/03/03 03:00:52;;;;;;;3.78;2.35;;;5.30;99.90;;;;;;4983351;28;20295;-62
2023/03/03 03:03:20;;;;;;;5.50;3.50;;;5.20;99.90;;;;;;4983140;28;20250;-62
2023/03/03 03:05:47;;;;;;;2.83;2.47;;;5.30;99.90;;;;;;4980506;28;20203;-62
2023/03/03 03:08:15;;;;;;;2.35;1.63;;;5.20;99.90;;;;;;4980409;28;20205;-62
2023/03/03 03:10:43;;;;;;;2.20;2.00;;;5.10;99.90;;;;;;4979933;28;20240;-61
2023/03/03 03:13:11;;;;;;;3.53;2.25;;;5.10;99.90;;;;;;4980303;28;20323;-62
2023/03/03 03:15:39;;;;;;;2.78;2.15;;;5.10;99.90;;;;;;4980983;28;20348;-62
2023/03/03 03:18:08;;;;;;;2.50;2.30;;;5.10;99.90;;;;;;4972080;28;20260;-62
2023/03/03 03:20:38;;;;;;;3.67;2.63;;;5.20;99.90;;;;;;4974038;28;20572;-62
2023/03/03 03:23:07;;;;;;;3.88;2.60;;;5.20;99.90;;;;;;4983482;28;20316;-61
2023/03/03 03:25:36;;;;;;;4.68;4.28;;;5.10;99.90;;;;;;4980940;28;20223;-62
2023/03/03 03:28:04;;;;;;;2.40;2.08;;;5.00;99.90;;;;;;4980165;28;20293;-62
2023/03/03 03:30:32;;;;;;;3.78;2.80;;;5.00;99.90;;;;;;4981140;28;20223;-62
2023/03/03 03:33:00;;;;;;;4.03;3.25;;;5.00;99.90;;;;;;4983011;28;20247;-62
2023/03/03 03:35:29;;;;;;;1.83;1.50;;;5.00;99.90;;;;;;4981774;28;20299;-61
2023/03/03 03:37:57;;;;;;;2.85;2.08;;;4.90;99.90;;;;;;4979987;28;20212;-62
2023/03/03 03:40:25;;;;;;;3.20;2.70;;;4.90;99.90;;;;;;4980459;28;20592;-61
2023/03/03 03:42:53;;;;;;;3.17;2.15;;;5.00;99.90;;;;;;4985664;28;20236;-62
2023/03/03 03:45:21;;;;;;;2.92;2.35;;;4.90;99.90;;;;;;4986609;28;20240;-61
2023/03/03 03:47:49;;;;;;;3.35;2.70;;;4.90;99.90;;;;;;4968527;28;20685;-62
2023/03/03 03:50:17;;;;;;;3.08;1.80;;;4.90;99.90;;;;;;4975467;28;20213;-62
2023/03/03 03:52:47;;;;;;;2.60;2.40;;;4.80;99.90;;;;;;4976064;28;20234;-61
2023/03/03 03:55:15;;;;;;;4.68;2.15;;;4.80;99.90;;;;;;4983885;28;20209;-62
2023/03/03 03:57:43;;;;;;;2.30;2.00;;;4.80;99.90;;;;;;4986686;28;20205;-62
2023/03/03 04:00:12;;;;;;;3.10;2.85;;;4.90;99.90;;;;;;4986803;28;20216;-62
2023/03/03 04:02:40;;;;;;;3.03;1.92;;;4.80;99.90;;;;;;4984049;28;20319;-61
2023/03/03 04:05:08;;;;;;;4.72;2.88;;;4.80;99.90;;;;;;4983652;28;20244;-62
2023/03/03 04:07:36;;;;;;;3.42;2.50;;;4.90;99.90;;;;;;4985661;28;20212;-62
2023/03/03 04:10:07;;;;;;;3.50;2.10;;;4.90;99.90;;;;;;4986741;28;20223;-62
2023/03/03 04:12:37;;;;;;;2.70;2.50;;;4.90;99.90;;;;;;4984737;28;20323;-62
2023/03/03 04:15:07;;;;;;;2.42;2.22;;;4.90;99.90;;;;;;4983577;28;20243;-62
2023/03/03 04:17:35;;;;;;;2.95;2.05;;;4.90;99.90;;;;;;4975456;28;20313;-61
2023/03/03 04:20:04;;;;;;;4.03;2.65;;;5.10;99.90;;;;;;4983196;28;20224;-62
2023/03/03 04:22:34;;;;;;;3.00;2.80;;;5.10;99.90;;;;;;4984740;28;20235;-62
2023/03/03 04:25:04;;;;;;;3.33;3.03;;;5.10;99.90;;;;;;4986567;28;20372;-62
2023/03/03 04:27:32;;;;;;;5.38;3.45;;;5.20;99.90;;;;;;4985259;28;20230;-61
2023/03/03 04:30:01;;;;;;;3.85;2.75;;;5.20;99.90;;;;;;4983138;28;20294;-62
2023/03/03 04:32:29;;;;;;;2.15;1.95;;;5.10;99.90;;;;;;4983592;28;20653;-61
2023/03/03 04:34:57;;;;;;;2.60;2.40;;;5.10;99.90;;;;;;4986740;28;20208;-62
2023/03/03 04:37:35;;;;;;;3.28;2.55;;;5.00;99.90;;;;;;4983463;28;20678;-62
2023/03/03 04:40:06;;;;;;;4.05;3.13;;;5.10;99.90;;;;;;4972958;28;20210;-61
2023/03/03 04:42:34;;;;;;;3.50;2.50;;;5.00;99.90;;;;;;4982604;28;20240;-62
2023/03/03 04:45:02;;;;;;;2.53;2.15;;;5.10;99.90;;;;;;4982238;28;20431;-62
2023/03/03 04:47:31;;;;;;;5.93;2.97;;;5.10;99.90;;;;;;4974046;28;20220;-63
2023/03/03 04:49:59;;;;;;;3.95;3.13;;;5.20;99.90;;;;;;4967204;28;20209;-62
2023/03/03 04:52:27;;;;;;;3.67;2.17;;;5.20;99.90;;;;;;4967672;28;20261;-62
2023/03/03 04:54:55;;;;;;;3.40;3.10;;;5.00;99.90;;;;;;4970871;28;20284;-63
2023/03/03 04:57:24;;;;;;;4.28;2.67;;;4.90;99.90;;;;;;4970629;28;20229;-62
2023/03/03 04:59:52;;;;;;;5.20;3.08;;;4.70;99.90;;;;;;4972414;28;20272;-62
2023/03/03 05:02:20;;;;;;;2.88;2.55;;;4.70;99.90;;;;;;4974232;28;20220;-62
2023/03/03 05:04:48;;;;;;;3.65;3.00;;;4.70;99.90;;;;;;4965908;28;20234;-62
2023/03/03 05:07:16;;;;;;;4.25;2.75;;;4.60;99.90;;;;;;4966364;28;20290;-63
2023/03/03 05:09:44;;;;;;;5.75;3.05;;;4.60;99.90;;;;;;4969455;28;20289;-63
2023/03/03 05:12:12;;;;;;;4.45;4.03;;;4.60;99.90;;;;;;4967191;28;20203;-62
2023/03/03 05:14:41;;;;;;;3.90;3.45;;;4.50;99.90;;;;;;4969330;28;20222;-62
2023/03/03 05:17:09;;;;;;;3.60;2.70;;;4.60;99.90;;;;;;4967851;28;20680;-62
2023/03/03 05:19:37;;;;;;;2.83;2.50;;;4.60;99.90;;;;;;4968302;28;20706;-62
2023/03/03 05:22:04;;;;;;;4.47;3.47;;;4.70;99.90;;;;;;4968533;28;20276;-62
2023/03/03 05:24:33;;;;;;;5.68;3.45;;;4.70;99.90;;;;;;4987778;28;20221;-62
2023/03/03 05:27:02;;;;;;;3.65;3.35;;;4.60;99.90;;;;;;4978668;28;20293;-62
2023/03/03 05:29:30;;;;;;;5.57;3.30;;;4.60;99.90;;;;;;4976369;28;20204;-61
2023/03/03 05:31:59;;;;;;;6.10;2.35;;;4.50;99.90;;;;;;4978154;28;20208;-61
2023/03/03 05:34:27;;;;;;;4.60;3.22;;;4.30;99.90;;;;;;4981658;28;20240;-62
2023/03/03 05:36:55;;;;;;;4.72;3.17;;;4.00;99.90;;;;;;4975013;28;20740;-61
2023/03/03 05:39:23;;;;;;;5.50;4.38;;;3.60;99.90;;;;;;4971219;28;20221;-61
2023/03/03 05:41:51;;;;;;;4.20;3.80;;;3.40;99.90;;;;;;4974471;28;20230;-62
2023/03/03 05:44:19;;;;;;;4.45;3.45;;;3.00;99.90;;;;;;4981578;28;20228;-61
2023/03/03 05:46:47;;;;;;;4.72;3.58;;;3.00;99.90;;;;;;4983325;28;20219;-61
2023/03/03 05:49:16;;;;;;;5.88;3.70;;;3.20;99.90;;;;;;4973568;28;20255;-61
2023/03/03 05:51:44;;;;;;;6.15;4.35;;;3.20;99.90;;;;;;4979975;28;20285;-65
2023/03/03 05:54:12;;;;;;;6.03;4.25;;;3.00;99.90;;;;;;4971506;28;20225;-62
2023/03/03 05:56:40;;;;;;;4.55;4.10;;;2.80;99.90;;;;;;4970211;28;20293;-62
2023/03/03 05:59:08;;;;;;;6.65;4.82;;;2.50;99.90;;;;;;4968245;28;20208;-62
2023/03/03 06:01:35;;;;;;;6.40;4.35;;;2.20;99.90;;;;;;4970786;28;20224;-62
2023/03/03 06:04:03;;;;;;;6.07;4.30;;;2.00;99.90;;;;;;4968439;28;20231;-62
2023/03/03 06:06:32;;;;;;;9.15;6.45;;;1.80;99.90;;;;;;4965211;28;20224;-62
2023/03/03 06:09:00;;;;;;;6.28;5.18;;;1.60;99.90;;;;;;4963406;28;20213;-62
2023/03/03 06:11:28;;;;;;;9.55;5.07;;;1.50;99.90;;;;;;4967391;28;20764;-62
2023/03/03 06:13:56;;;;;;;7.93;5.47;;;1.40;99.90;;;;;;4972350;28;20646;-62
2023/03/03 06:16:24;;;;;;;7.90;4.93;;;1.30;99.90;;;;;;4980950;28;20302;-62
2023/03/03 06:18:52;;;;;;;10.02;6.03;;;1.20;99.90;;;;;;4971585;28;20221;-62
2023/03/03 06:21:20;;;;;;;8.13;5.40;;;1.30;99.90;;;;;;4964806;28;20232;-62
2023/03/03 06:23:49;;;;;;;6.82;5.55;;;1.20;99.90;;;;;;4966088;28;20242;-62
2023/03/03 06:26:17;;;;;;;8.07;4.97;;;1.30;99.90;;;;;;4966013;28;20302;-62
2023/03/03 06:28:45;;;;;;;8.48;5.85;;;1.20;99.90;;;;;;4964931;28;20632;-62
2023/03/03 06:31:13;;;;;;;7.03;4.70;;;1.20;99.90;;;;;;4960901;28;20211;-62
2023/03/03 06:33:41;;;;;;;5.82;5.18;;;1.20;99.90;;;;;;4962429;28;20247;-62
2023/03/03 06:36:09;;;;;;;6.40;4.60;;;1.20;99.90;;;;;;4960219;28;20241;-62
2023/03/03 06:38:37;;;;;;;7.28;5.10;;;1.20;99.90;;;;;;4967872;28;20299;-62
2023/03/03 06:41:07;;;;;;;8.18;4.05;;;1.20;99.90;;;;;;4966265;28;20306;-62
2023/03/03 06:43:35;;;;;;;9.00;5.78;;;1.10;99.90;;;;;;4967109;28;20236;-62
2023/03/03 06:46:03;;;;;;;7.88;5.25;;;1.10;99.90;;;;;;4962457;28;20228;-62
2023/03/03 06:48:32;;;;;;;8.25;5.28;;;1.10;99.90;;;;;;4960829;28;20255;-63
2023/03/03 06:51:02;;;;;;;7.18;4.45;;;1.20;99.90;;;;;;4971492;28;20329;-62
2023/03/03 06:53:33;;;;;;;5.97;5.30;;;1.10;99.90;;;;;;4979942;28;20317;-61
2023/03/03 06:56:02;;;;;;;11.57;6.70;;;1.10;99.90;;;;;;4984637;28;20204;-62
2023/03/03 06:58:32;;;;;;;9.13;5.60;;;1.20;99.90;;;;;;4983434;28;20899;-61
2023/03/03 07:01:01;;;;;;;6.80;5.47;;;1.20;99.90;;;;;;4979902;28;20213;-62
2023/03/03 07:03:33;;;;;;;7.30;6.03;;;1.20;99.90;;;;;;4979902;28;20321;-62
2023/03/03 07:06:02;;;;;;;9.80;6.35;;;1.10;99.90;;;;;;4981970;28;20218;-62
2023/03/03 07:08:32;;;;;;;7.65;5.72;;;1.20;99.90;;;;;;4982763;28;20206;-62
2023/03/03 07:11:08;;;;;;;11.00;6.50;;;1.30;99.90;;;;;;4976026;28;20298;-62
2023/03/03 07:13:45;;;;;;;10.38;5.78;;;1.50;99.90;;;;;;4981807;28;20232;-62
2023/03/03 07:16:15;;;;;;;9.13;6.38;;;1.50;99.90;;;;;;4983800;28;20202;-62
2023/03/03 07:18:49;;;;;;;8.52;5.22;;;1.50;99.90;;;;;;4976430;28;20333;-63
2023/03/03 07:21:19;;;;;;;9.30;5.55;;;1.50;99.90;;;;;;4964847;28;20206;-62
2023/03/03 07:23:49;;;;;;;7.57;5.28;;;1.50;99.90;;;;;;4970452;28;20227;-62
2023/03/03 07:26:21;;;;;;;6.85;4.97;;;1.50;99.90;;;;;;4972231;28;20215;-62
2023/03/03 07:28:54;;;;;;;8.43;5.88;;;1.60;99.90;;;;;;4971986;28;20203;-62
2023/03/03 07:31:31;;;;;;;7.80;6.60;;;1.70;99.90;;;;;;4971632;28;20208;-62
2023/03/03 07:34:00;;;;;;;7.07;5.47;;;1.70;99.90;;;;;;4963846;28;20763;-62
2023/03/03 07:36:31;;;;;;;9.60;6.03;;;1.70;99.90;;;;;;4971857;28;20213;-62
2023/03/03 07:39:02;;;;;;;5.53;4.00;;;1.80;99.90;;;;;;4964219;28;20236;-62
2023/03/03 07:41:32;;;;;;;9.90;5.88;;;1.90;99.90;;;;;;4971530;28;20303;-62
2023/03/03 07:44:05;;;;;;;7.72;5.82;;;2.00;99.90;;;;;;4971691;28;20233;-62
2023/03/03 07:46:41;;;;;;;6.82;4.75;;;2.10;99.90;;;;;;4979358;28;20613;-62
2023/03/03 07:49:21;;;;;;;7.50;6.40;;;2.20;99.90;;;;;;4979855;28;20259;-62
2023/03/03 07:51:53;;;;;;;7.68;5.63;;;2.30;99.90;;;;;;4981490;28;20297;-63
2023/03/03 07:54:29;;;;;;;7.07;5.55;;;2.30;99.90;;;;;;4983139;28;20302;-63
2023/03/03 07:57:02;;;;;;;9.30;5.20;;;2.40;99.90;;;;;;4979530;28;20291;-63
2023/03/03 07:59:36;;;;;;;9.82;6.28;;;2.50;99.90;;;;;;4980048;28;20689;-62
2023/03/03 08:02:42;;;;;;;12.20;7.05;;;2.60;99.90;;;;;;4979985;28;20205;-62
2023/03/03 08:05:27;;;;;;;6.50;5.28;;;2.80;99.90;;;;;;4913475;29;20238;-62
2023/03/03 08:08:02;;;;;;;8.50;5.55;;;2.90;99.90;;;;;;4979212;28;20223;-62
2023/03/03 08:10:36;;;;;;;6.53;5.20;;;3.00;99.90;;;;;;4983033;28;20225;-62
2023/03/03 08:13:16;;;;;;;7.60;5.30;;;3.10;99.90;;;;;;4982819;28;20249;-62
2023/03/03 08:15:49;;;;;;;8.02;5.60;;;3.20;99.90;;;;;;4980033;28;20213;-62
2023/03/03 08:18:25;;;;;;;7.07;4.15;;;3.30;99.90;;;;;;4977292;28;20208;-63
2023/03/03 08:20:56;;;;;;;10.10;6.07;;;3.40;99.90;;;;;;4980366;28;20292;-62
2023/03/03 08:23:23;;;;;;;5.93;4.53;;;3.60;99.90;;;;;;4979387;28;20309;-62
2023/03/03 08:25:52;;;;;;;6.15;4.55;;;3.70;99.90;;;;;;4981812;28;20233;-63
2023/03/03 08:28:21;;;;;;;8.15;4.70;;;3.80;99.90;;;;;;4984345;28;20243;-62
2023/03/03 08:30:51;;;;;;;7.03;4.70;;;3.80;99.90;;;;;;4984240;28;20673;-62
2023/03/03 08:33:35;;;;;;;7.57;4.40;;;3.90;99.90;;;;;;4982567;28;20353;-62
2023/03/03 08:36:04;;;;;;;8.55;5.20;;;4.00;99.90;;;;;;4986573;28;20254;-62
2023/03/03 08:38:32;;;;;;;7.63;5.07;;;4.10;99.90;;;;;;4986392;28;20220;-62
2023/03/03 08:41:00;;;;;;;6.47;5.32;;;4.20;99.90;;;;;;4983100;28;20391;-63
2023/03/03 08:43:28;;;;;;;6.15;4.93;;;4.30;99.90;;;;;;4982704;28;20235;-63
2023/03/03 08:46:00;;;;;;;7.18;4.63;;;4.40;99.90;;;;;;4985533;28;20675;-63
2023/03/03 08:48:29;;;;;;;5.78;4.07;;;4.70;99.90;;;;;;4979357;28;20299;-63
2023/03/03 08:50:57;;;;;;;5.22;4.28;;;4.70;99.90;;;;;;4982264;28;20307;-63
2023/03/03 08:53:25;;;;;;;5.30;3.20;;;4.70;99.90;;;;;;4982565;28;20347;-63
2023/03/03 08:55:52;;;;;;;6.22;4.22;;;4.90;99.90;;;;;;4985183;28;20219;-63
2023/03/03 08:58:21;;;;;;;9.55;4.95;;;5.00;99.90;;;;;;4986095;28;20291;-64
2023/03/03 09:01:03;;;;;;;5.53;4.72;;;5.20;99.90;;;;;;4985839;28;20296;-63
2023/03/03 09:03:31;;;;;;;5.63;3.95;;;5.50;99.90;;;;;;4985497;28;20229;-63
2023/03/03 09:05:59;;;;;;;2.58;2.35;;;5.60;99.90;;;;;;4982734;28;20209;-63
2023/03/03 09:08:27;;;;;;;5.07;3.40;;;5.80;99.90;;;;;;4982644;28;20214;-63
2023/03/03 09:10:55;;;;;;;4.43;4.03;;;5.90;99.90;;;;;;4984511;28;20220;-63
2023/03/03 09:13:22;;;;;;;5.10;3.30;;;6.30;99.90;;;;;;4985600;28;20224;-64
2023/03/03 09:15:50;;;;;;;4.60;3.10;;;6.60;99.90;;;;;;4981713;28;20224;-63
2023/03/03 09:18:22;;;;;;;5.85;3.38;;;6.70;99.90;;;;;;4974217;28;20574;-63
2023/03/03 09:20:51;;;;;;;6.60;4.32;;;6.60;99.90;;;;;;4981947;28;20267;-63
2023/03/03 09:23:37;;;;;;;6.28;3.78;;;6.50;99.90;;;;;;4982063;28;20317;-63
2023/03/03 09:26:27;;;;;;;9.30;3.47;;;6.50;99.90;;;;;;4982515;28;20629;-64
2023/03/03 09:28:58;;;;;;;6.63;3.95;;;6.70;99.90;;;;;;4984282;28;20305;-63
2023/03/03 09:31:27;;;;;;;5.90;3.70;;;6.70;99.90;;;;;;4985398;28;20201;-64
2023/03/03 09:33:58;;;;;;;8.05;3.38;;;6.90;99.90;;;;;;4982356;28;20321;-64
2023/03/03 09:36:28;;;;;;;4.97;4.15;;;7.20;99.90;;;;;;4982040;28;20237;-63
2023/03/03 09:38:57;;;;;;;3.33;2.70;;;7.40;99.90;;;;;;4983695;28;20714;-64
2023/03/03 09:41:44;;;;;;;3.65;3.30;;;7.50;99.90;;;;;;4984563;28;20286;-64
2023/03/03 09:44:56;;;;;;;4.13;2.53;;;7.60;99.90;;;;;;4975081;28;20696;-63
2023/03/03 09:47:49;;;;;;;6.30;3.40;;;7.80;99.90;;;;;;4970240;28;20215;-64
2023/03/03 09:50:28;;;;;;;4.47;3.60;;;8.10;99.90;;;;;;4979985;28;20299;-63
2023/03/03 09:53:09;;;;;;;3.83;2.95;;;8.00;99.90;;;;;;4983917;28;20230;-63
2023/03/03 09:55:44;;;;;;;2.33;1.77;;;8.30;99.90;;;;;;4985304;28;20220;-64
2023/03/03 09:58:36;;;;;;;4.47;3.05;;;8.40;99.90;;;;;;4985042;28;20604;-63
2023/03/03 10:01:30;;;;;;;2.60;1.90;;;8.60;99.90;;;;;;4981333;28;20293;-63
2023/03/03 10:04:35;;;;;;;4.20;2.25;;;8.90;99.90;;;;;;4983618;28;20236;-64
2023/03/03 10:07:25;;;;;;;2.67;1.85;;;8.70;99.90;;;;;;4951348;28;20234;-62
2023/03/03 10:10:14;;;;;;;4.28;3.75;;;8.80;99.90;;;;;;4982851;28;20213;-63
2023/03/03 10:12:52;;;;;;;3.67;2.40;;;8.70;99.90;;;;;;4984101;28;20253;-64
2023/03/03 10:15:39;;;;;;;2.25;1.80;;;8.80;99.90;;;;;;4981336;28;20207;-64
2023/03/03 10:18:18;;;;;;;2.90;2.03;;;9.20;99.90;;;;;;4965014;28;20202;-64
2023/03/03 10:20:57;;;;;;;1.50;1.40;;;9.50;99.90;;;;;;4981440;28;20238;-64
2023/03/03 10:23:48;;;;;;;5.15;3.50;;;10.00;99.90;;;;;;4984552;28;20268;-63
2023/03/03 10:26:25;;;;;;;4.07;3.08;;;10.00;99.90;;;;;;4974567;28;20206;-63
2023/03/03 10:29:32;;;;;;;3.63;2.35;;;10.00;99.90;;;;;;4973478;28;20568;-63
2023/03/03 10:32:36;;;;;;;2.05;1.40;;;10.10;99.90;;;;;;4983212;28;20210;-64
2023/03/03 10:35:31;;;;;;;3.90;3.08;;;9.90;99.90;;;;;;4980950;28;20581;-64
2023/03/03 10:38:17;;;;;;;1.65;1.23;;;10.20;99.90;;;;;;4974034;28;20569;-63
2023/03/03 10:40:53;;;;;;;1.63;1.30;;;10.30;99.90;;;;;;4983576;28;20627;-63
2023/03/03 10:43:40;;;;;;;2.58;2.03;;;10.40;99.90;;;;;;4980691;28;20305;-64
2023/03/03 10:46:26;;;;;;;1.98;1.77;;;10.40;99.90;;;;;;4970446;28;20241;-64
2023/03/03 10:49:15;;;;;;;3.13;2.35;;;10.30;99.90;;;;;;4973555;28;20697;-64
2023/03/03 10:51:54;;;;;;;2.38;1.20;;;10.60;99.90;;;;;;4983786;28;20260;-63
2023/03/03 10:54:33;;;;;;;4.35;2.88;;;10.40;99.90;;;;;;4980616;28;20229;-64
2023/03/03 10:57:10;;;;;;;1.40;1.30;;;10.40;99.90;;;;;;4982943;28;20293;-64
2023/03/03 10:59:51;;;;;;;4.35;2.53;;;10.80;99.90;;;;;;4983581;28;20233;-64
2023/03/03 11:02:25;;;;;;;1.45;1.25;;;11.10;99.90;;;;;;4983689;28;20320;-64
2023/03/03 11:05:16;;;;;;;1.30;1.15;;;11.00;99.90;;;;;;4982464;28;20308;-64
2023/03/03 11:07:48;;;;;;;1.60;1.50;;;10.90;99.90;;;;;;4980188;28;20586;-64
2023/03/03 11:10:28;;;;;;;1.13;0.95;;;11.00;99.90;;;;;;4983514;28;20705;-63
2023/03/03 11:13:10;;;;;;;2.60;1.05;;;10.90;99.90;;;;;;4981985;28;20229;-63
2023/03/03 11:15:50;;;;;;;4.13;1.70;;;11.20;99.90;;;;;;4980394;28;20277;-64
2023/03/03 11:18:42;;;;;;;1.40;1.00;;;11.80;99.90;;;;;;4965323;28;20213;-64
2023/03/03 11:21:17;;;;;;;3.97;1.55;;;11.70;99.90;;;;;;4972399;28;20639;-64
2023/03/03 11:24:19;;;;;;;1.25;1.10;;;11.80;99.90;;;;;;4980205;28;20643;-64
2023/03/03 11:27:20;;;;;;;1.77;1.15;;;12.10;99.90;;;;;;4972616;28;20227;-63
2023/03/03 11:30:25;;;;;;;4.07;2.28;;;12.20;99.90;;;;;;4980196;28;20214;-64
2023/03/03 11:33:03;;;;;;;2.35;2.05;;;12.40;99.90;;;;;;4982000;28;20320;-64
2023/03/03 11:35:37;;;;;;;1.25;1.15;;;12.70;99.90;;;;;;4980304;28;20234;-64
2023/03/03 11:38:20;;;;;;;1.60;1.50;;;12.50;99.80;;;;;;4982444;28;20267;-63
2023/03/03 11:40:51;;;;;;;2.13;2.03;;;12.60;99.90;;;;;;4982790;28;20208;-64
2023/03/03 11:43:25;;;;;;;2.50;2.30;;;12.60;99.90;;;;;;4980069;28;20611;-64
2023/03/03 11:46:08;;;;;;;0.95;0.85;;;12.50;99.80;;;;;;4979734;28;20218;-64
2023/03/03 11:48:43;;;;;;;3.65;1.45;;;12.50;99.70;;;;;;4971572;28;20222;-64
2023/03/03 11:51:15;;;;;;;2.50;1.45;;;12.90;99.60;;;;;;4971903;28;20281;-64
2023/03/03 11:54:02;;;;;;;2.63;2.10;;;13.10;98.90;;;;;;4979938;28;20242;-64
2023/03/03 11:56:38;;;;;;;0.93;0.82;;;12.80;98.90;;;;;;4974652;28;20693;-64
2023/03/03 11:59:20;;;;;;;1.98;0.77;;;13.10;98.50;;;;;;4982245;28;20260;-63
2023/03/03 12:01:55;;;;;;;0.98;0.98;;;13.70;97.30;;;;;;4982782;28;20289;-64
2023/03/03 12:04:31;;;;;;;1.25;1.25;;;14.00;97.00;;;;;;4983019;28;20249;-64
2023/03/03 12:07:16;;;;;;;3.00;1.20;;;14.20;96.60;;;;;;4985251;28;20246;-64
2023/03/03 12:10:02;;;;;;;1.58;1.48;;;14.20;96.30;;;;;;4986629;28;20715;-64
2023/03/03 12:12:34;;;;;;;1.20;1.10;;;14.20;95.80;;;;;;4977812;28;20222;-64
2023/03/03 12:15:14;;;;;;;2.22;1.92;;;14.60;95.50;;;;;;4985214;28;20221;-64
2023/03/03 12:18:07;;;;;;;1.15;1.05;;;14.80;94.90;;;;;;4976118;28;20290;-64
2023/03/03 12:20:45;;;;;;;1.13;1.02;;;14.90;94.40;;;;;;4977961;28;20199;-63
2023/03/03 12:23:29;;;;;;;1.55;1.45;;;15.10;93.90;;;;;;4975460;28;20233;-64
2023/03/03 12:26:03;;;;;;;0.70;0.60;;;15.10;93.90;;;;;;4984551;28;20203;-64
2023/03/03 12:28:37;;;;;;;0.93;0.65;;;15.50;92.90;;;;;;4986448;28;20313;-64
2023/03/03 12:31:23;;;;;;;2.58;2.20;;;15.40;93.30;;;;;;4983842;28;20581;-64
2023/03/03 12:33:56;;;;;;;1.45;1.35;;;15.80;92.80;;;;;;4982891;28;20269;-64
2023/03/03 12:36:38;;;;;;;1.42;1.33;;;15.80;92.30;;;;;;4986603;28;20202;-64
2023/03/03 12:39:12;;;;;;;2.65;1.75;;;16.40;92.00;;;;;;4984117;28;20665;-63
2023/03/03 12:41:47;;;;;;;1.10;0.75;;;16.70;90.70;;;;;;4982903;28;20559;-64
2023/03/03 12:44:21;;;;;;;1.00;0.80;;;16.60;90.20;;;;;;4982522;28;20236;-64
2023/03/03 12:46:57;;;;;;;1.13;0.90;;;16.10;90.00;;;;;;4979300;28;20206;-64
2023/03/03 12:49:36;;;;;;;1.45;1.05;;;16.10;90.60;;;;;;4974841;28;20705;-64
2023/03/03 12:52:26;;;;;;;1.67;1.58;;;15.80;90.20;;;;;;4985521;28;20255;-64
2023/03/03 12:55:05;;;;;;;2.28;1.48;;;15.60;90.40;;;;;;4985389;28;20210;-64
2023/03/03 12:57:40;;;;;;;1.60;1.35;;;15.90;90.40;;;;;;4982805;28;20210;-64
2023/03/03 13:00:28;;;;;;;1.73;1.10;;;16.20;89.90;;;;;;4985002;28;20260;-64
2023/03/03 13:03:07;;;;;;;1.95;1.35;;;16.70;89.30;;;;;;4984992;28;20779;-64
2023/03/03 13:05:48;;;;;;;2.22;1.27;;;16.70;89.60;;;;;;4982666;28;20199;-64
2023/03/03 13:08:31;;;;;;;0.90;0.80;;;16.30;89.70;;;;;;4974770;28;20790;-64
2023/03/03 13:11:16;;;;;;;1.40;1.20;;;16.10;88.30;;;;;;4983406;28;20214;-64
2023/03/03 13:13:50;;;;;;;0.60;0.60;;;15.70;89.00;;;;;;4985652;28;20708;-65
2023/03/03 13:16:25;;;;;;;0.70;0.70;;;15.60;90.00;;;;;;4982266;28;20261;-64
2023/03/03 13:19:11;;;;;;;1.95;1.83;;;16.00;89.60;;;;;;4976456;28;20289;-64
2023/03/03 13:21:47;;;;;;;1.25;0.90;;;16.20;88.80;;;;;;4978104;28;20669;-64
2023/03/03 13:24:21;;;;;;;1.48;1.35;;;16.20;88.50;;;;;;4973766;28;20281;-63
2023/03/03 13:26:55;;;;;;;0.90;0.90;;;16.00;88.50;;;;;;4974452;28;20198;-64
2023/03/03 13:29:27;;;;;;;1.40;1.30;;;16.30;88.00;;;;;;4973933;28;20226;-64